sensor_id;sensor_type;location;lat;lon;timestamp;P1;durP1;ratioP1;P2;durP2;ratioP2
34900;SDS011;21112;51.976;5.660;2022-09-04T00:02:13;9.88;;;2.88;;
34900;SDS011;21112;51.976;5.660;2022-09-04T00:04:43;9.88;;;2.50;;
34900;SDS011;21112;51.976;5.660;2022-09-04T00:07:16;5.50;;;1.98;;
34900;SDS011;21112;51.976;5.660;2022-09-04T00:09:50;5.72;;;2.10;;
34900;SDS011;21112;51.976;5.660;2022-09-04T00:12:24;5.15;;;2.25;;
34900;SDS011;21112;51.976;5.660;2022-09-04T00:14:56;4.78;;;2.00;;
34900;SDS011;21112;51.976;5.660;2022-09-04T00:19:57;5.78;;;2.00;;
34900;SDS011;21112;51.976;5.660;2022-09-04T00:22:30;3.53;;;1.90;;
34900;SDS011;21112;51.976;5.660;2022-09-04T00:25:01;3.80;;;1.95;;
34900;SDS011;21112;51.976;5.660;2022-09-04T00:27:29;4.32;;;1.80;;
34900;SDS011;21112;51.976;5.660;2022-09-04T00:30:08;7.30;;;2.10;;
34900;SDS011;21112;51.976;5.660;2022-09-04T00:32:37;4.07;;;1.83;;
34900;SDS011;21112;51.976;5.660;2022-09-04T00:35:06;4.90;;;1.80;;
34900;SDS011;21112;51.976;5.660;2022-09-04T00:37:38;5.50;;;2.45;;
34900;SDS011;21112;51.976;5.660;2022-09-04T00:40:08;4.95;;;2.10;;
34900;SDS011;21112;51.976;5.660;2022-09-04T00:42:42;4.85;;;2.17;;
34900;SDS011;21112;51.976;5.660;2022-09-04T00:45:11;3.72;;;1.90;;
34900;SDS011;21112;51.976;5.660;2022-09-04T00:48:00;4.55;;;2.00;;
34900;SDS011;21112;51.976;5.660;2022-09-04T00:53:20;5.88;;;3.22;;
34900;SDS011;21112;51.976;5.660;2022-09-04T00:55:54;4.10;;;2.22;;
34900;SDS011;21112;51.976;5.660;2022-09-04T00:58:36;5.50;;;2.17;;
34900;SDS011;21112;51.976;5.660;2022-09-04T01:01:06;5.70;;;2.42;;
34900;SDS011;21112;51.976;5.660;2022-09-04T01:03:50;3.97;;;1.80;;
34900;SDS011;21112;51.976;5.660;2022-09-04T01:06:28;4.03;;;2.20;;
34900;SDS011;21112;51.976;5.660;2022-09-04T01:11:44;3.95;;;2.08;;
34900;SDS011;21112;51.976;5.660;2022-09-04T01:14:14;4.38;;;1.92;;
34900;SDS011;21112;51.976;5.660;2022-09-04T01:16:45;4.07;;;2.00;;
34900;SDS011;21112;51.976;5.660;2022-09-04T01:19:18;4.53;;;1.90;;
34900;SDS011;21112;51.976;5.660;2022-09-04T01:21:54;3.20;;;1.63;;
34900;SDS011;21112;51.976;5.660;2022-09-04T01:24:32;3.92;;;2.25;;
34900;SDS011;21112;51.976;5.660;2022-09-04T01:27:06;5.13;;;2.50;;
34900;SDS011;21112;51.976;5.660;2022-09-04T01:29:36;3.30;;;2.13;;
34900;SDS011;21112;51.976;5.660;2022-09-04T01:32:07;6.53;;;2.67;;
34900;SDS011;21112;51.976;5.660;2022-09-04T01:34:38;4.45;;;2.10;;
34900;SDS011;21112;51.976;5.660;2022-09-04T01:37:11;4.25;;;2.15;;
34900;SDS011;21112;51.976;5.660;2022-09-04T01:39:39;5.88;;;2.05;;
34900;SDS011;21112;51.976;5.660;2022-09-04T01:42:12;4.38;;;2.08;;
34900;SDS011;21112;51.976;5.660;2022-09-04T01:44:42;9.38;;;3.25;;
34900;SDS011;21112;51.976;5.660;2022-09-04T01:47:10;3.33;;;2.00;;
34900;SDS011;21112;51.976;5.660;2022-09-04T01:49:42;8.70;;;3.25;;
34900;SDS011;21112;51.976;5.660;2022-09-04T01:52:19;5.10;;;2.47;;
34900;SDS011;21112;51.976;5.660;2022-09-04T01:54:50;5.07;;;2.40;;
34900;SDS011;21112;51.976;5.660;2022-09-04T01:57:26;4.35;;;2.08;;
34900;SDS011;21112;51.976;5.660;2022-09-04T02:00:01;5.60;;;2.05;;
34900;SDS011;21112;51.976;5.660;2022-09-04T02:02:31;4.95;;;2.53;;
34900;SDS011;21112;51.976;5.660;2022-09-04T02:05:00;7.85;;;3.92;;
34900;SDS011;21112;51.976;5.660;2022-09-04T02:07:34;8.18;;;4.60;;
34900;SDS011;21112;51.976;5.660;2022-09-04T02:10:06;5.03;;;2.40;;
34900;SDS011;21112;51.976;5.660;2022-09-04T02:12:38;4.70;;;2.35;;
34900;SDS011;21112;51.976;5.660;2022-09-04T02:15:16;5.20;;;2.42;;
34900;SDS011;21112;51.976;5.660;2022-09-04T02:17:47;8.68;;;4.60;;
34900;SDS011;21112;51.976;5.660;2022-09-04T02:20:20;6.25;;;2.35;;
34900;SDS011;21112;51.976;5.660;2022-09-04T02:22:52;7.40;;;3.97;;
34900;SDS011;21112;51.976;5.660;2022-09-04T02:25:21;8.20;;;2.50;;
34900;SDS011;21112;51.976;5.660;2022-09-04T02:27:58;7.80;;;3.83;;
34900;SDS011;21112;51.976;5.660;2022-09-04T02:30:30;9.07;;;3.70;;
34900;SDS011;21112;51.976;5.660;2022-09-04T02:35:26;7.38;;;1.90;;
34900;SDS011;21112;51.976;5.660;2022-09-04T02:37:58;6.70;;;3.55;;
34900;SDS011;21112;51.976;5.660;2022-09-04T02:40:30;6.95;;;3.50;;
34900;SDS011;21112;51.976;5.660;2022-09-04T02:43:04;9.77;;;4.57;;
34900;SDS011;21112;51.976;5.660;2022-09-04T02:45:32;10.40;;;3.85;;
34900;SDS011;21112;51.976;5.660;2022-09-04T02:48:03;5.78;;;2.90;;
34900;SDS011;21112;51.976;5.660;2022-09-04T02:53:55;7.88;;;4.53;;
34900;SDS011;21112;51.976;5.660;2022-09-04T02:56:24;6.22;;;3.33;;
34900;SDS011;21112;51.976;5.660;2022-09-04T02:59:09;4.55;;;2.53;;
34900;SDS011;21112;51.976;5.660;2022-09-04T03:01:42;5.05;;;2.83;;
34900;SDS011;21112;51.976;5.660;2022-09-04T03:07:33;4.07;;;2.13;;
34900;SDS011;21112;51.976;5.660;2022-09-04T03:10:03;9.55;;;5.20;;
34900;SDS011;21112;51.976;5.660;2022-09-04T03:12:35;7.03;;;2.95;;
34900;SDS011;21112;51.976;5.660;2022-09-04T03:15:05;8.82;;;3.72;;
34900;SDS011;21112;51.976;5.660;2022-09-04T03:17:38;11.48;;;4.63;;
34900;SDS011;21112;51.976;5.660;2022-09-04T03:20:11;9.88;;;4.57;;
34900;SDS011;21112;51.976;5.660;2022-09-04T03:22:42;6.40;;;2.85;;
34900;SDS011;21112;51.976;5.660;2022-09-04T03:25:28;10.27;;;5.22;;
34900;SDS011;21112;51.976;5.660;2022-09-04T03:27:59;10.45;;;5.45;;
34900;SDS011;21112;51.976;5.660;2022-09-04T03:30:28;11.40;;;5.22;;
34900;SDS011;21112;51.976;5.660;2022-09-04T03:32:58;5.85;;;2.53;;
34900;SDS011;21112;51.976;5.660;2022-09-04T03:35:31;11.00;;;4.80;;
34900;SDS011;21112;51.976;5.660;2022-09-04T03:38:04;5.55;;;2.80;;
34900;SDS011;21112;51.976;5.660;2022-09-04T03:40:35;7.43;;;3.42;;
34900;SDS011;21112;51.976;5.660;2022-09-04T03:45:47;6.38;;;3.55;;
34900;SDS011;21112;51.976;5.660;2022-09-04T03:48:23;5.22;;;2.28;;
34900;SDS011;21112;51.976;5.660;2022-09-04T03:50:54;5.32;;;2.50;;
34900;SDS011;21112;51.976;5.660;2022-09-04T03:53:24;6.57;;;2.60;;
34900;SDS011;21112;51.976;5.660;2022-09-04T03:55:56;7.25;;;3.30;;
34900;SDS011;21112;51.976;5.660;2022-09-04T03:58:32;6.65;;;3.42;;
34900;SDS011;21112;51.976;5.660;2022-09-04T04:01:08;4.78;;;2.47;;
34900;SDS011;21112;51.976;5.660;2022-09-04T04:03:50;5.07;;;2.38;;
34900;SDS011;21112;51.976;5.660;2022-09-04T04:06:24;5.13;;;2.38;;
34900;SDS011;21112;51.976;5.660;2022-09-04T04:08:58;5.97;;;2.35;;
34900;SDS011;21112;51.976;5.660;2022-09-04T04:11:43;7.70;;;3.75;;
34900;SDS011;21112;51.976;5.660;2022-09-04T04:14:24;8.52;;;4.00;;
34900;SDS011;21112;51.976;5.660;2022-09-04T04:16:59;4.57;;;2.20;;
34900;SDS011;21112;51.976;5.660;2022-09-04T04:19:43;7.50;;;3.65;;
34900;SDS011;21112;51.976;5.660;2022-09-04T04:22:20;9.23;;;4.75;;
34900;SDS011;21112;51.976;5.660;2022-09-04T04:24:54;9.52;;;4.93;;
34900;SDS011;21112;51.976;5.660;2022-09-04T04:27:30;5.38;;;2.80;;
34900;SDS011;21112;51.976;5.660;2022-09-04T04:30:04;4.63;;;2.58;;
34900;SDS011;21112;51.976;5.660;2022-09-04T04:35:17;5.55;;;2.30;;
34900;SDS011;21112;51.976;5.660;2022-09-04T04:37:52;7.30;;;3.33;;
34900;SDS011;21112;51.976;5.660;2022-09-04T04:40:23;6.18;;;2.85;;
34900;SDS011;21112;51.976;5.660;2022-09-04T04:42:55;6.78;;;2.65;;
34900;SDS011;21112;51.976;5.660;2022-09-04T04:45:27;5.35;;;2.35;;
34900;SDS011;21112;51.976;5.660;2022-09-04T04:50:44;10.82;;;3.30;;
34900;SDS011;21112;51.976;5.660;2022-09-04T04:53:14;5.32;;;2.67;;
34900;SDS011;21112;51.976;5.660;2022-09-04T04:55:46;5.38;;;2.47;;
34900;SDS011;21112;51.976;5.660;2022-09-04T04:58:20;6.40;;;2.40;;
34900;SDS011;21112;51.976;5.660;2022-09-04T05:00:52;5.25;;;2.28;;
34900;SDS011;21112;51.976;5.660;2022-09-04T05:03:23;5.60;;;2.75;;
34900;SDS011;21112;51.976;5.660;2022-09-04T05:05:58;6.90;;;3.13;;
34900;SDS011;21112;51.976;5.660;2022-09-04T05:08:30;12.13;;;5.82;;
34900;SDS011;21112;51.976;5.660;2022-09-04T05:10:59;11.63;;;5.55;;
34900;SDS011;21112;51.976;5.660;2022-09-04T05:13:29;5.05;;;2.60;;
34900;SDS011;21112;51.976;5.660;2022-09-04T05:15:59;7.60;;;3.88;;
34900;SDS011;21112;51.976;5.660;2022-09-04T05:18:29;6.30;;;2.40;;
34900;SDS011;21112;51.976;5.660;2022-09-04T05:20:59;12.55;;;6.00;;
34900;SDS011;21112;51.976;5.660;2022-09-04T05:23:32;5.93;;;2.63;;
34900;SDS011;21112;51.976;5.660;2022-09-04T05:26:06;5.85;;;2.78;;
34900;SDS011;21112;51.976;5.660;2022-09-04T05:28:39;4.78;;;2.30;;
34900;SDS011;21112;51.976;5.660;2022-09-04T05:31:12;5.38;;;2.53;;
34900;SDS011;21112;51.976;5.660;2022-09-04T05:33:42;11.82;;;6.40;;
34900;SDS011;21112;51.976;5.660;2022-09-04T05:36:15;6.68;;;2.90;;
34900;SDS011;21112;51.976;5.660;2022-09-04T05:38:49;4.40;;;2.25;;
34900;SDS011;21112;51.976;5.660;2022-09-04T05:41:21;5.75;;;2.40;;
34900;SDS011;21112;51.976;5.660;2022-09-04T05:43:59;4.97;;;2.60;;
34900;SDS011;21112;51.976;5.660;2022-09-04T05:46:33;5.45;;;2.40;;
34900;SDS011;21112;51.976;5.660;2022-09-04T05:49:07;5.35;;;2.60;;
34900;SDS011;21112;51.976;5.660;2022-09-04T05:51:46;4.43;;;2.05;;
34900;SDS011;21112;51.976;5.660;2022-09-04T05:54:25;5.55;;;2.63;;
34900;SDS011;21112;51.976;5.660;2022-09-04T05:57:01;5.35;;;2.58;;
34900;SDS011;21112;51.976;5.660;2022-09-04T05:59:49;5.97;;;3.00;;
34900;SDS011;21112;51.976;5.660;2022-09-04T06:02:25;6.18;;;2.88;;
34900;SDS011;21112;51.976;5.660;2022-09-04T06:05:02;7.10;;;2.50;;
34900;SDS011;21112;51.976;5.660;2022-09-04T06:07:38;6.40;;;2.75;;
34900;SDS011;21112;51.976;5.660;2022-09-04T06:10:09;6.43;;;2.40;;
34900;SDS011;21112;51.976;5.660;2022-09-04T06:12:59;5.70;;;3.08;;
34900;SDS011;21112;51.976;5.660;2022-09-04T06:15:39;9.98;;;4.82;;
34900;SDS011;21112;51.976;5.660;2022-09-04T06:18:11;7.30;;;3.80;;
34900;SDS011;21112;51.976;5.660;2022-09-04T06:20:48;8.50;;;3.15;;
34900;SDS011;21112;51.976;5.660;2022-09-04T06:23:32;10.27;;;5.03;;
34900;SDS011;21112;51.976;5.660;2022-09-04T06:28:57;15.45;;;6.60;;
34900;SDS011;21112;51.976;5.660;2022-09-04T06:34:09;17.48;;;6.32;;
34900;SDS011;21112;51.976;5.660;2022-09-04T06:36:41;14.18;;;7.10;;
34900;SDS011;21112;51.976;5.660;2022-09-04T06:39:21;6.80;;;3.25;;
34900;SDS011;21112;51.976;5.660;2022-09-04T06:41:53;8.35;;;4.53;;
34900;SDS011;21112;51.976;5.660;2022-09-04T06:44:27;6.35;;;2.55;;
34900;SDS011;21112;51.976;5.660;2022-09-04T06:47:04;5.22;;;2.70;;
34900;SDS011;21112;51.976;5.660;2022-09-04T06:49:40;7.07;;;2.60;;
34900;SDS011;21112;51.976;5.660;2022-09-04T06:52:10;6.63;;;2.92;;
34900;SDS011;21112;51.976;5.660;2022-09-04T06:54:45;7.10;;;3.13;;
34900;SDS011;21112;51.976;5.660;2022-09-04T06:57:21;14.45;;;7.18;;
34900;SDS011;21112;51.976;5.660;2022-09-04T06:59:54;7.80;;;4.15;;
34900;SDS011;21112;51.976;5.660;2022-09-04T07:02:33;7.32;;;2.80;;
34900;SDS011;21112;51.976;5.660;2022-09-04T07:05:09;8.85;;;3.97;;
34900;SDS011;21112;51.976;5.660;2022-09-04T07:07:42;15.30;;;7.70;;
34900;SDS011;21112;51.976;5.660;2022-09-04T07:10:19;7.13;;;3.75;;
34900;SDS011;21112;51.976;5.660;2022-09-04T07:13:04;13.02;;;6.13;;
34900;SDS011;21112;51.976;5.660;2022-09-04T07:21:19;9.15;;;5.30;;
34900;SDS011;21112;51.976;5.660;2022-09-04T07:23:49;14.00;;;7.70;;
34900;SDS011;21112;51.976;5.660;2022-09-04T07:26:23;8.02;;;4.38;;
34900;SDS011;21112;51.976;5.660;2022-09-04T07:29:04;7.47;;;3.22;;
34900;SDS011;21112;51.976;5.660;2022-09-04T07:31:35;8.50;;;3.83;;
34900;SDS011;21112;51.976;5.660;2022-09-04T07:34:06;6.43;;;3.35;;
34900;SDS011;21112;51.976;5.660;2022-09-04T07:36:35;9.63;;;5.18;;
34900;SDS011;21112;51.976;5.660;2022-09-04T07:39:06;8.23;;;3.33;;
34900;SDS011;21112;51.976;5.660;2022-09-04T07:41:41;12.52;;;6.55;;
34900;SDS011;21112;51.976;5.660;2022-09-04T07:44:13;7.45;;;4.05;;
34900;SDS011;21112;51.976;5.660;2022-09-04T07:46:42;7.13;;;3.30;;
34900;SDS011;21112;51.976;5.660;2022-09-04T07:49:14;14.90;;;6.20;;
34900;SDS011;21112;51.976;5.660;2022-09-04T07:51:44;16.23;;;8.32;;
34900;SDS011;21112;51.976;5.660;2022-09-04T07:54:26;15.82;;;8.35;;
34900;SDS011;21112;51.976;5.660;2022-09-04T07:57:15;11.95;;;5.53;;
34900;SDS011;21112;51.976;5.660;2022-09-04T08:00:03;15.18;;;6.90;;
34900;SDS011;21112;51.976;5.660;2022-09-04T08:05:22;12.93;;;7.00;;
34900;SDS011;21112;51.976;5.660;2022-09-04T08:07:53;9.98;;;4.20;;
34900;SDS011;21112;51.976;5.660;2022-09-04T08:10:27;12.18;;;4.80;;
34900;SDS011;21112;51.976;5.660;2022-09-04T08:13:12;7.85;;;4.15;;
34900;SDS011;21112;51.976;5.660;2022-09-04T08:15:48;8.77;;;4.65;;
34900;SDS011;21112;51.976;5.660;2022-09-04T08:18:32;14.13;;;6.65;;
34900;SDS011;21112;51.976;5.660;2022-09-04T08:21:05;11.27;;;5.40;;
34900;SDS011;21112;51.976;5.660;2022-09-04T08:26:21;11.52;;;6.43;;
34900;SDS011;21112;51.976;5.660;2022-09-04T08:28:56;12.90;;;5.97;;
34900;SDS011;21112;51.976;5.660;2022-09-04T08:31:28;8.88;;;4.72;;
34900;SDS011;21112;51.976;5.660;2022-09-04T08:34:01;12.23;;;6.18;;
34900;SDS011;21112;51.976;5.660;2022-09-04T08:36:34;11.35;;;5.35;;
34900;SDS011;21112;51.976;5.660;2022-09-04T08:39:04;13.18;;;6.22;;
34900;SDS011;21112;51.976;5.660;2022-09-04T08:47:29;11.90;;;5.82;;
34900;SDS011;21112;51.976;5.660;2022-09-04T08:50:08;12.05;;;6.00;;
34900;SDS011;21112;51.976;5.660;2022-09-04T08:52:47;14.38;;;6.20;;
34900;SDS011;21112;51.976;5.660;2022-09-04T08:55:32;11.25;;;5.47;;
34900;SDS011;21112;51.976;5.660;2022-09-04T09:00:55;16.20;;;6.50;;
34900;SDS011;21112;51.976;5.660;2022-09-04T09:03:44;13.43;;;6.85;;
34900;SDS011;21112;51.976;5.660;2022-09-04T09:06:18;11.95;;;6.45;;
34900;SDS011;21112;51.976;5.660;2022-09-04T09:14:53;12.57;;;5.97;;
34900;SDS011;21112;51.976;5.660;2022-09-04T09:17:30;12.45;;;5.85;;
34900;SDS011;21112;51.976;5.660;2022-09-04T09:20:09;13.25;;;6.28;;
34900;SDS011;21112;51.976;5.660;2022-09-04T09:22:45;12.40;;;6.75;;
34900;SDS011;21112;51.976;5.660;2022-09-04T09:25:16;12.48;;;6.22;;
34900;SDS011;21112;51.976;5.660;2022-09-04T09:30:35;10.02;;;4.82;;
34900;SDS011;21112;51.976;5.660;2022-09-04T09:33:18;9.65;;;4.93;;
34900;SDS011;21112;51.976;5.660;2022-09-04T09:35:58;9.60;;;4.93;;
34900;SDS011;21112;51.976;5.660;2022-09-04T09:38:43;10.38;;;5.45;;
34900;SDS011;21112;51.976;5.660;2022-09-04T09:46:58;10.20;;;4.82;;
34900;SDS011;21112;51.976;5.660;2022-09-04T09:49:40;8.88;;;5.07;;
34900;SDS011;21112;51.976;5.660;2022-09-04T09:52:14;13.80;;;5.78;;
34900;SDS011;21112;51.976;5.660;2022-09-04T09:57:39;6.15;;;3.50;;
34900;SDS011;21112;51.976;5.660;2022-09-04T10:00:11;9.20;;;4.00;;
34900;SDS011;21112;51.976;5.660;2022-09-04T10:11:10;5.30;;;2.90;;
34900;SDS011;21112;51.976;5.660;2022-09-04T10:16:34;8.77;;;4.03;;
34900;SDS011;21112;51.976;5.660;2022-09-04T10:19:33;12.77;;;5.72;;
34900;SDS011;21112;51.976;5.660;2022-09-04T10:27:49;9.00;;;3.97;;
34900;SDS011;21112;51.976;5.660;2022-09-04T10:30:22;10.95;;;3.70;;
34900;SDS011;21112;51.976;5.660;2022-09-04T10:35:36;10.10;;;3.92;;
34900;SDS011;21112;51.976;5.660;2022-09-04T10:38:20;7.07;;;3.55;;
34900;SDS011;21112;51.976;5.660;2022-09-04T10:46:38;7.88;;;3.95;;
34900;SDS011;21112;51.976;5.660;2022-09-04T10:49:18;10.10;;;3.60;;
34900;SDS011;21112;51.976;5.660;2022-09-04T10:52:06;11.25;;;4.18;;
34900;SDS011;21112;51.976;5.660;2022-09-04T10:54:39;6.15;;;3.25;;
34900;SDS011;21112;51.976;5.660;2022-09-04T10:57:15;7.15;;;3.58;;
34900;SDS011;21112;51.976;5.660;2022-09-04T10:59:52;7.43;;;2.90;;
34900;SDS011;21112;51.976;5.660;2022-09-04T11:02:32;8.05;;;3.53;;
34900;SDS011;21112;51.976;5.660;2022-09-04T11:05:17;5.40;;;2.70;;
34900;SDS011;21112;51.976;5.660;2022-09-04T11:07:59;7.78;;;3.15;;
34900;SDS011;21112;51.976;5.660;2022-09-04T11:10:40;7.22;;;3.15;;
34900;SDS011;21112;51.976;5.660;2022-09-04T11:16:04;8.20;;;3.17;;
34900;SDS011;21112;51.976;5.660;2022-09-04T11:18:56;5.43;;;2.55;;
34900;SDS011;21112;51.976;5.660;2022-09-04T11:29:50;5.43;;;2.20;;
34900;SDS011;21112;51.976;5.660;2022-09-04T11:32:24;6.30;;;2.60;;
34900;SDS011;21112;51.976;5.660;2022-09-04T11:35:14;5.85;;;2.70;;
34900;SDS011;21112;51.976;5.660;2022-09-04T11:38:02;6.05;;;2.72;;
34900;SDS011;21112;51.976;5.660;2022-09-04T11:46:20;6.32;;;2.30;;
34900;SDS011;21112;51.976;5.660;2022-09-04T11:51:51;7.95;;;2.78;;
34900;SDS011;21112;51.976;5.660;2022-09-04T11:57:13;3.95;;;2.15;;
34900;SDS011;21112;51.976;5.660;2022-09-04T12:02:40;4.75;;;2.15;;
34900;SDS011;21112;51.976;5.660;2022-09-04T12:05:15;6.07;;;2.17;;
34900;SDS011;21112;51.976;5.660;2022-09-04T12:07:55;5.93;;;2.28;;
34900;SDS011;21112;51.976;5.660;2022-09-04T12:10:33;4.45;;;2.03;;
34900;SDS011;21112;51.976;5.660;2022-09-04T12:18:48;5.30;;;1.98;;
34900;SDS011;21112;51.976;5.660;2022-09-04T12:21:31;5.90;;;2.20;;
34900;SDS011;21112;51.976;5.660;2022-09-04T12:24:16;4.93;;;2.08;;
34900;SDS011;21112;51.976;5.660;2022-09-04T12:26:53;4.45;;;1.90;;
34900;SDS011;21112;51.976;5.660;2022-09-04T12:38:08;5.32;;;2.58;;
34900;SDS011;21112;51.976;5.660;2022-09-04T12:40:43;4.85;;;1.90;;
34900;SDS011;21112;51.976;5.660;2022-09-04T12:43:13;6.93;;;2.00;;
34900;SDS011;21112;51.976;5.660;2022-09-04T12:45:52;4.50;;;2.10;;
34900;SDS011;21112;51.976;5.660;2022-09-04T12:48:23;2.88;;;1.63;;
34900;SDS011;21112;51.976;5.660;2022-09-04T12:50:59;7.82;;;1.85;;
34900;SDS011;21112;51.976;5.660;2022-09-04T12:53:30;3.80;;;1.67;;
34900;SDS011;21112;51.976;5.660;2022-09-04T12:56:04;3.78;;;1.80;;
34900;SDS011;21112;51.976;5.660;2022-09-04T12:58:43;5.00;;;1.80;;
34900;SDS011;21112;51.976;5.660;2022-09-04T13:03:53;3.17;;;1.65;;
34900;SDS011;21112;51.976;5.660;2022-09-04T13:06:34;3.70;;;1.67;;
34900;SDS011;21112;51.976;5.660;2022-09-04T13:09:11;5.22;;;1.80;;
34900;SDS011;21112;51.976;5.660;2022-09-04T13:11:46;2.97;;;1.50;;
34900;SDS011;21112;51.976;5.660;2022-09-04T13:14:23;2.95;;;1.58;;
34900;SDS011;21112;51.976;5.660;2022-09-04T13:16:59;2.78;;;1.50;;
34900;SDS011;21112;51.976;5.660;2022-09-04T13:19:29;3.10;;;1.60;;
34900;SDS011;21112;51.976;5.660;2022-09-04T13:22:04;3.25;;;1.27;;
34900;SDS011;21112;51.976;5.660;2022-09-04T13:24:37;2.65;;;1.50;;
34900;SDS011;21112;51.976;5.660;2022-09-04T13:27:13;3.47;;;1.60;;
34900;SDS011;21112;51.976;5.660;2022-09-04T13:29:44;2.35;;;1.52;;
34900;SDS011;21112;51.976;5.660;2022-09-04T13:32:28;2.88;;;1.30;;
34900;SDS011;21112;51.976;5.660;2022-09-04T13:35:01;4.95;;;1.95;;
34900;SDS011;21112;51.976;5.660;2022-09-04T13:37:34;3.37;;;1.43;;
34900;SDS011;21112;51.976;5.660;2022-09-04T13:45:43;5.63;;;1.50;;
34900;SDS011;21112;51.976;5.660;2022-09-04T13:48:13;2.22;;;1.30;;
34900;SDS011;21112;51.976;5.660;2022-09-04T13:50:42;3.95;;;1.40;;
34900;SDS011;21112;51.976;5.660;2022-09-04T13:53:13;3.13;;;1.52;;
34900;SDS011;21112;51.976;5.660;2022-09-04T13:55:44;3.03;;;1.40;;
34900;SDS011;21112;51.976;5.660;2022-09-04T13:58:12;2.25;;;1.30;;
34900;SDS011;21112;51.976;5.660;2022-09-04T14:00:46;2.92;;;1.30;;
34900;SDS011;21112;51.976;5.660;2022-09-04T14:03:15;4.35;;;1.80;;
34900;SDS011;21112;51.976;5.660;2022-09-04T14:05:44;2.65;;;1.33;;
34900;SDS011;21112;51.976;5.660;2022-09-04T14:08:12;2.65;;;1.35;;
34900;SDS011;21112;51.976;5.660;2022-09-04T14:10:49;3.78;;;2.10;;
34900;SDS011;21112;51.976;5.660;2022-09-04T14:13:23;2.90;;;1.50;;
34900;SDS011;21112;51.976;5.660;2022-09-04T14:16:02;3.10;;;1.50;;
34900;SDS011;21112;51.976;5.660;2022-09-04T14:18:48;4.68;;;1.55;;
34900;SDS011;21112;51.976;5.660;2022-09-04T14:24:02;4.00;;;1.80;;
34900;SDS011;21112;51.976;5.660;2022-09-04T14:26:33;3.30;;;1.40;;
34900;SDS011;21112;51.976;5.660;2022-09-04T14:29:06;2.50;;;1.35;;
34900;SDS011;21112;51.976;5.660;2022-09-04T14:31:45;4.20;;;1.63;;
34900;SDS011;21112;51.976;5.660;2022-09-04T14:34:20;4.72;;;1.63;;
34900;SDS011;21112;51.976;5.660;2022-09-04T14:36:54;3.53;;;1.80;;
34900;SDS011;21112;51.976;5.660;2022-09-04T14:39:27;3.97;;;1.73;;
34900;SDS011;21112;51.976;5.660;2022-09-04T14:44:47;1.88;;;1.38;;
34900;SDS011;21112;51.976;5.660;2022-09-04T14:47:19;4.18;;;1.58;;
34900;SDS011;21112;51.976;5.660;2022-09-04T14:49:51;4.78;;;1.50;;
34900;SDS011;21112;51.976;5.660;2022-09-04T14:52:20;5.93;;;1.70;;
34900;SDS011;21112;51.976;5.660;2022-09-04T14:54:51;5.75;;;1.90;;
34900;SDS011;21112;51.976;5.660;2022-09-04T14:57:21;3.72;;;1.55;;
34900;SDS011;21112;51.976;5.660;2022-09-04T14:59:55;2.25;;;1.30;;
34900;SDS011;21112;51.976;5.660;2022-09-04T15:02:27;2.97;;;1.48;;
34900;SDS011;21112;51.976;5.660;2022-09-04T15:04:58;5.07;;;1.65;;
34900;SDS011;21112;51.976;5.660;2022-09-04T15:07:45;3.65;;;1.50;;
34900;SDS011;21112;51.976;5.660;2022-09-04T15:10:15;3.83;;;1.55;;
34900;SDS011;21112;51.976;5.660;2022-09-04T15:12:44;5.30;;;1.95;;
34900;SDS011;21112;51.976;5.660;2022-09-04T15:15:17;3.30;;;1.65;;
34900;SDS011;21112;51.976;5.660;2022-09-04T15:17:50;6.20;;;1.50;;
34900;SDS011;21112;51.976;5.660;2022-09-04T15:20:19;7.10;;;1.92;;
34900;SDS011;21112;51.976;5.660;2022-09-04T15:22:49;5.30;;;1.70;;
34900;SDS011;21112;51.976;5.660;2022-09-04T15:30:27;4.13;;;1.50;;
34900;SDS011;21112;51.976;5.660;2022-09-04T15:33:03;3.40;;;1.60;;
34900;SDS011;21112;51.976;5.660;2022-09-04T15:35:30;5.38;;;1.83;;
34900;SDS011;21112;51.976;5.660;2022-09-04T15:38:03;4.05;;;2.03;;
34900;SDS011;21112;51.976;5.660;2022-09-04T15:40:30;3.95;;;1.85;;
34900;SDS011;21112;51.976;5.660;2022-09-04T15:43:05;4.18;;;1.80;;
34900;SDS011;21112;51.976;5.660;2022-09-04T15:45:34;13.05;;;2.30;;
34900;SDS011;21112;51.976;5.660;2022-09-04T15:48:19;5.57;;;2.03;;
34900;SDS011;21112;51.976;5.660;2022-09-04T15:50:56;6.10;;;2.00;;
34900;SDS011;21112;51.976;5.660;2022-09-04T15:53:25;14.90;;;2.55;;
34900;SDS011;21112;51.976;5.660;2022-09-04T15:56:02;19.05;;;2.72;;
34900;SDS011;21112;51.976;5.660;2022-09-04T15:58:37;11.95;;;2.70;;
34900;SDS011;21112;51.976;5.660;2022-09-04T16:01:09;9.65;;;2.30;;
34900;SDS011;21112;51.976;5.660;2022-09-04T16:03:42;16.98;;;2.20;;
34900;SDS011;21112;51.976;5.660;2022-09-04T16:06:14;12.18;;;2.47;;
34900;SDS011;21112;51.976;5.660;2022-09-04T16:08:45;15.90;;;2.65;;
34900;SDS011;21112;51.976;5.660;2022-09-04T16:11:17;11.43;;;2.25;;
34900;SDS011;21112;51.976;5.660;2022-09-04T16:13:52;8.55;;;1.70;;
34900;SDS011;21112;51.976;5.660;2022-09-04T16:16:20;13.43;;;2.42;;
34900;SDS011;21112;51.976;5.660;2022-09-04T16:18:59;14.23;;;2.40;;
34900;SDS011;21112;51.976;5.660;2022-09-04T16:21:36;11.65;;;1.98;;
34900;SDS011;21112;51.976;5.660;2022-09-04T16:24:06;7.88;;;1.98;;
34900;SDS011;21112;51.976;5.660;2022-09-04T16:26:38;8.68;;;2.00;;
34900;SDS011;21112;51.976;5.660;2022-09-04T16:29:05;4.60;;;1.60;;
34900;SDS011;21112;51.976;5.660;2022-09-04T16:31:33;11.25;;;2.03;;
34900;SDS011;21112;51.976;5.660;2022-09-04T16:34:04;4.40;;;1.50;;
34900;SDS011;21112;51.976;5.660;2022-09-04T16:36:36;7.00;;;1.70;;
34900;SDS011;21112;51.976;5.660;2022-09-04T16:39:06;6.68;;;2.15;;
34900;SDS011;21112;51.976;5.660;2022-09-04T16:41:40;7.22;;;2.08;;
34900;SDS011;21112;51.976;5.660;2022-09-04T16:44:13;5.85;;;1.90;;
34900;SDS011;21112;51.976;5.660;2022-09-04T16:46:47;8.05;;;1.80;;
34900;SDS011;21112;51.976;5.660;2022-09-04T16:49:29;6.45;;;1.80;;
34900;SDS011;21112;51.976;5.660;2022-09-04T16:52:00;6.93;;;1.92;;
34900;SDS011;21112;51.976;5.660;2022-09-04T16:54:30;5.70;;;1.70;;
34900;SDS011;21112;51.976;5.660;2022-09-04T16:57:03;5.22;;;1.95;;
34900;SDS011;21112;51.976;5.660;2022-09-04T16:59:34;4.22;;;1.67;;
34900;SDS011;21112;51.976;5.660;2022-09-04T17:02:05;11.13;;;1.88;;
34900;SDS011;21112;51.976;5.660;2022-09-04T17:04:43;6.90;;;1.80;;
34900;SDS011;21112;51.976;5.660;2022-09-04T17:07:15;5.78;;;1.65;;
34900;SDS011;21112;51.976;5.660;2022-09-04T17:09:51;3.22;;;1.60;;
34900;SDS011;21112;51.976;5.660;2022-09-04T17:12:32;4.07;;;1.67;;
34900;SDS011;21112;51.976;5.660;2022-09-04T17:15:05;2.63;;;1.35;;
34900;SDS011;21112;51.976;5.660;2022-09-04T17:17:33;8.13;;;1.75;;
34900;SDS011;21112;51.976;5.660;2022-09-04T17:20:07;7.38;;;1.90;;
34900;SDS011;21112;51.976;5.660;2022-09-04T17:22:39;4.55;;;1.40;;
34900;SDS011;21112;51.976;5.660;2022-09-04T17:25:10;3.72;;;1.48;;
34900;SDS011;21112;51.976;5.660;2022-09-04T17:27:41;6.95;;;1.70;;
34900;SDS011;21112;51.976;5.660;2022-09-04T17:30:12;4.43;;;1.88;;
34900;SDS011;21112;51.976;5.660;2022-09-04T17:32:43;5.28;;;1.55;;
34900;SDS011;21112;51.976;5.660;2022-09-04T17:35:16;6.88;;;1.65;;
34900;SDS011;21112;51.976;5.660;2022-09-04T17:37:49;3.97;;;1.38;;
34900;SDS011;21112;51.976;5.660;2022-09-04T17:40:17;3.00;;;1.30;;
34900;SDS011;21112;51.976;5.660;2022-09-04T17:42:46;3.10;;;1.35;;
34900;SDS011;21112;51.976;5.660;2022-09-04T17:45:17;5.10;;;1.52;;
34900;SDS011;21112;51.976;5.660;2022-09-04T17:47:46;4.65;;;1.77;;
34900;SDS011;21112;51.976;5.660;2022-09-04T17:50:14;3.27;;;1.40;;
34900;SDS011;21112;51.976;5.660;2022-09-04T17:52:54;6.25;;;1.58;;
34900;SDS011;21112;51.976;5.660;2022-09-04T17:55:21;3.60;;;1.20;;
34900;SDS011;21112;51.976;5.660;2022-09-04T17:57:50;5.20;;;1.55;;
34900;SDS011;21112;51.976;5.660;2022-09-04T18:00:19;5.25;;;1.48;;